Time;durP1;ratioP1;P1;durP2;ratioP2;P2;SDS_P1;SDS_P2;PMS_P1;PMS_P2;Temp;Humidity;BMP_temperature;BMP_pressure;BME280_temperature;BME280_humidity;BME280_pressure;Samples;Min_cycle;Max_cycle;Signal;HPM_P1;HPM_P2
2022/12/06 00:01:15;;;;;;;13.00;8.23;;;4.90;99.90;;;;;;4954391;28;20031;-77
2022/12/06 00:03:45;;;;;;;13.77;8.68;;;4.90;99.90;;;;;;4962472;28;20035;-78
2022/12/06 00:06:16;;;;;;;14.13;9.00;;;4.90;99.90;;;;;;4959312;28;20075;-79
2022/12/06 00:08:46;;;;;;;10.30;6.75;;;4.90;99.90;;;;;;4961827;28;20027;-79
2022/12/06 00:11:18;;;;;;;11.40;6.22;;;4.90;99.90;;;;;;4959297;28;20035;-79
2022/12/06 00:13:43;;;;;;;10.98;6.03;;;4.90;99.90;;;;;;4959376;28;20036;-80
2022/12/06 00:16:19;;;;;;;9.43;5.57;;;4.90;99.90;;;;;;4974159;28;20495;-78
2022/12/06 00:18:46;;;;;;;8.32;4.63;;;4.90;99.90;;;;;;4961722;28;20023;-79
2022/12/06 00:21:17;;;;;;;16.50;4.45;;;4.90;99.90;;;;;;4966142;28;20071;-79
2022/12/06 00:23:48;;;;;;;8.57;4.72;;;4.90;99.90;;;;;;4964537;28;20030;-79
2022/12/06 00:26:16;;;;;;;10.27;4.55;;;4.80;99.90;;;;;;4958870;28;20027;-78
2022/12/06 00:28:41;;;;;;;6.43;4.00;;;4.80;99.90;;;;;;4962956;28;20037;-79
2022/12/06 00:31:12;;;;;;;7.50;4.25;;;4.80;99.90;;;;;;4966484;28;20090;-80
2022/12/06 00:33:38;;;;;;;10.20;4.93;;;4.80;99.90;;;;;;4963080;28;20054;-79
2022/12/06 00:36:12;;;;;;;7.20;4.22;;;4.80;99.90;;;;;;4955139;28;20035;-77
2022/12/06 00:38:44;;;;;;;8.15;4.22;;;4.80;99.90;;;;;;4959789;28;20042;-76
2022/12/06 00:41:15;;;;;;;6.90;3.88;;;4.80;99.90;;;;;;4960923;28;20042;-78
2022/12/06 00:43:41;;;;;;;6.43;3.72;;;4.80;99.90;;;;;;4963002;28;20055;-79
2022/12/06 00:46:10;;;;;;;8.05;4.15;;;4.70;99.90;;;;;;4958850;28;20031;-78
2022/12/06 00:48:36;;;;;;;6.07;3.92;;;4.70;99.90;;;;;;4959599;28;20058;-78
2022/12/06 00:51:02;;;;;;;7.18;4.00;;;4.70;99.90;;;;;;4960634;28;20039;-79
2022/12/06 00:53:28;;;;;;;5.88;3.78;;;4.70;99.90;;;;;;4960399;28;20004;-79
2022/12/06 00:55:57;;;;;;;6.25;4.18;;;4.60;99.90;;;;;;4960220;28;20476;-78
2022/12/06 00:58:22;;;;;;;7.75;4.65;;;4.60;99.90;;;;;;4964885;28;20408;-79
2022/12/06 01:00:51;;;;;;;10.15;5.28;;;4.60;99.90;;;;;;4963734;28;20039;-78
2022/12/06 01:03:17;;;;;;;9.45;5.57;;;4.60;99.90;;;;;;4960493;28;20031;-79
2022/12/06 01:05:48;;;;;;;9.48;4.72;;;4.60;99.90;;;;;;4962471;28;20066;-79
2022/12/06 01:08:16;;;;;;;9.75;4.85;;;4.60;99.90;;;;;;4964334;28;20078;-78
2022/12/06 01:10:49;;;;;;;8.00;4.55;;;4.60;99.90;;;;;;4970522;28;20031;-79
2022/12/06 01:13:15;;;;;;;9.13;5.63;;;4.50;99.90;;;;;;4965771;28;20027;-78
2022/12/06 01:15:40;;;;;;;9.10;4.47;;;4.50;99.90;;;;;;4958293;28;20069;-78
2022/12/06 01:18:06;;;;;;;8.13;4.30;;;4.50;99.90;;;;;;4957816;28;20030;-79
2022/12/06 01:20:33;;;;;;;8.57;5.28;;;4.40;99.90;;;;;;4967042;28;20554;-79
2022/12/06 01:22:58;;;;;;;11.55;5.65;;;4.40;99.90;;;;;;4966391;28;20303;-79
2022/12/06 01:25:24;;;;;;;10.00;5.55;;;4.40;99.90;;;;;;4967728;28;20028;-79
2022/12/06 01:27:50;;;;;;;9.63;5.18;;;4.40;99.90;;;;;;4966902;28;20025;-75
2022/12/06 01:30:15;;;;;;;6.97;4.95;;;4.40;99.90;;;;;;4969378;28;20026;-78
2022/12/06 01:32:41;;;;;;;9.20;5.50;;;4.40;99.90;;;;;;4980941;28;20035;-78
2022/12/06 01:35:10;;;;;;;7.80;4.32;;;4.40;99.90;;;;;;4971508;28;20026;-77
2022/12/06 01:37:35;;;;;;;8.13;4.93;;;4.40;99.90;;;;;;4984751;28;20062;-78
2022/12/06 01:40:01;;;;;;;11.60;6.43;;;4.40;99.90;;;;;;4969337;28;20023;-79
2022/12/06 01:42:26;;;;;;;8.48;4.82;;;4.30;99.90;;;;;;4967395;28;20020;-79
2022/12/06 01:45:00;;;;;;;9.57;5.55;;;4.30;99.90;;;;;;4984624;28;20023;-78
2022/12/06 01:47:29;;;;;;;12.52;6.40;;;4.30;99.90;;;;;;4962478;28;20019;-78
2022/12/06 01:50:05;;;;;;;8.68;4.57;;;4.30;99.90;;;;;;4972775;28;20035;-77
2022/12/06 01:52:59;;;;;;;8.18;5.28;;;4.20;99.90;;;;;;4963938;28;20046;-80
2022/12/06 01:55:29;;;;;;;9.02;5.00;;;4.20;99.90;;;;;;4965916;28;20491;-80
2022/12/06 01:58:05;;;;;;;9.40;5.10;;;4.10;99.90;;;;;;4964073;28;20091;-79
2022/12/06 02:00:31;;;;;;;9.27;4.50;;;4.10;99.90;;;;;;4962866;28;20035;-79
2022/12/06 02:03:00;;;;;;;7.97;4.50;;;4.10;99.90;;;;;;4963867;28;20044;-78
2022/12/06 02:05:27;;;;;;;7.22;4.60;;;4.00;99.90;;;;;;4961412;28;20103;-79
2022/12/06 02:07:54;;;;;;;7.90;4.95;;;4.00;99.90;;;;;;4970181;28;20039;-78
2022/12/06 02:10:21;;;;;;;8.00;4.95;;;4.00;99.90;;;;;;4964750;28;20034;-77
2022/12/06 02:12:53;;;;;;;8.43;4.70;;;3.90;99.90;;;;;;4965356;28;20043;-76
2022/12/06 02:15:39;;;;;;;9.13;4.63;;;3.90;99.90;;;;;;4962786;28;20134;-79
2022/12/06 02:18:57;;;;;;;9.38;5.63;;;3.80;99.90;;;;;;4960180;28;20836;-78
2022/12/06 02:22:00;;;;;;;9.10;4.32;;;3.80;99.90;;;;;;4909129;29;20041;-79
2022/12/06 02:24:47;;;;;;;8.95;4.80;;;3.70;99.90;;;;;;4963054;28;20033;-78
2022/12/06 02:27:51;;;;;;;8.00;4.70;;;3.70;99.90;;;;;;4959755;28;20031;-78
2022/12/06 02:30:58;;;;;;;6.57;4.10;;;3.60;99.90;;;;;;4980075;28;20039;-79
2022/12/06 02:33:23;;;;;;;6.90;3.90;;;3.60;99.90;;;;;;4964887;28;20062;-78
2022/12/06 02:36:16;;;;;;;7.32;3.90;;;3.60;99.90;;;;;;4967339;28;20066;-80
2022/12/06 02:38:48;;;;;;;7.30;3.65;;;3.60;99.90;;;;;;4964126;28;20035;-79
2022/12/06 02:41:39;;;;;;;4.90;2.85;;;3.60;99.90;;;;;;4973279;28;20078;-79
2022/12/06 02:44:07;;;;;;;5.80;3.17;;;3.60;99.90;;;;;;4962093;28;20086;-78
2022/12/06 02:46:37;;;;;;;5.82;2.90;;;3.60;99.90;;;;;;4969152;28;20058;-78
2022/12/06 02:49:05;;;;;;;7.45;3.22;;;3.60;99.90;;;;;;4966325;28;20018;-78
2022/12/06 02:51:34;;;;;;;5.20;2.92;;;3.60;99.90;;;;;;4964440;28;20027;-78
2022/12/06 02:54:04;;;;;;;6.43;2.95;;;3.60;99.90;;;;;;4971909;28;20104;-78
2022/12/06 02:56:31;;;;;;;4.75;2.40;;;3.60;99.90;;;;;;4979418;28;20039;-79
2022/12/06 02:59:00;;;;;;;4.80;3.08;;;3.60;99.90;;;;;;4968316;28;20030;-78
2022/12/06 03:01:33;;;;;;;4.25;2.60;;;3.60;99.90;;;;;;4961877;28;20047;-78
2022/12/06 03:04:32;;;;;;;5.07;2.25;;;3.60;99.90;;;;;;4971177;28;20039;-77
2022/12/06 03:07:35;;;;;;;6.18;3.38;;;3.60;99.90;;;;;;4975009;28;20034;-78
2022/12/06 03:10:30;;;;;;;4.10;2.33;;;3.60;99.90;;;;;;4966501;28;20412;-75
2022/12/06 03:13:30;;;;;;;4.47;2.72;;;3.70;99.90;;;;;;4959933;28;20086;-79
2022/12/06 03:16:16;;;;;;;8.50;3.15;;;3.70;99.90;;;;;;4970710;28;20444;-78
2022/12/06 03:18:53;;;;;;;6.28;2.75;;;3.70;99.90;;;;;;4964977;28;20532;-77
2022/12/06 03:21:27;;;;;;;5.15;2.78;;;3.70;99.90;;;;;;4964166;28;20024;-79
2022/12/06 03:23:57;;;;;;;7.57;3.08;;;3.70;99.90;;;;;;4963419;28;20688;-80
2022/12/06 03:26:28;;;;;;;5.45;2.35;;;3.70;99.90;;;;;;4962837;28;20038;-77
2022/12/06 03:28:56;;;;;;;5.22;2.80;;;3.70;99.90;;;;;;4955416;28;20087;-78
2022/12/06 03:31:29;;;;;;;9.93;3.10;;;3.70;99.90;;;;;;4960639;28;20031;-80
2022/12/06 03:34:15;;;;;;;4.50;3.30;;;3.70;99.90;;;;;;4957239;28;20034;-78
2022/12/06 03:36:46;;;;;;;3.47;2.15;;;3.70;99.90;;;;;;4962147;28;20042;-78
2022/12/06 03:39:17;;;;;;;5.10;2.38;;;3.70;99.90;;;;;;4963854;28;20122;-77
2022/12/06 03:41:52;;;;;;;3.90;2.45;;;3.70;99.90;;;;;;4956562;28;20218;-79
2022/12/06 03:44:22;;;;;;;3.90;1.95;;;3.70;99.90;;;;;;4960022;28;20031;-78
2022/12/06 03:47:20;;;;;;;4.03;2.30;;;3.70;99.90;;;;;;4960149;28;20032;-78
2022/12/06 03:50:00;;;;;;;4.55;2.50;;;3.70;99.90;;;;;;4965396;28;20022;-79
2022/12/06 03:52:28;;;;;;;4.95;2.50;;;3.60;99.90;;;;;;4960811;28;20030;-78
2022/12/06 03:54:57;;;;;;;3.70;2.33;;;3.60;99.90;;;;;;4961110;28;20065;-79
2022/12/06 03:57:22;;;;;;;5.78;2.88;;;3.60;99.90;;;;;;4958205;28;20042;-76
2022/12/06 03:59:54;;;;;;;6.43;3.10;;;3.50;99.90;;;;;;4963995;28;20024;-78
2022/12/06 04:02:23;;;;;;;3.38;1.92;;;3.50;99.90;;;;;;4962469;28;20165;-80
2022/12/06 04:04:48;;;;;;;5.18;2.50;;;3.50;99.90;;;;;;4963440;28;20385;-76
2022/12/06 04:07:14;;;;;;;5.10;2.72;;;3.40;99.90;;;;;;4955505;28;20028;-76
2022/12/06 04:15:22;;;;;;;5.18;2.80;;;3.30;99.90;;;;;;4961840;28;20042;-79
2022/12/06 04:18:13;;;;;;;4.38;2.30;;;3.30;99.90;;;;;;4967455;28;20475;-80
2022/12/06 04:23:46;;;;;;;3.63;2.38;;;3.30;99.90;;;;;;4960156;28;20046;-80
2022/12/06 04:26:15;;;;;;;3.85;2.42;;;3.30;99.90;;;;;;4965438;28;20099;-80
2022/12/06 04:39:43;;;;;;;4.47;2.28;;;3.30;99.90;;;;;;4957284;28;20059;-79
2022/12/06 04:44:53;;;;;;;4.50;2.58;;;3.30;99.90;;;;;;4960888;29;20392;-81
2022/12/06 04:47:22;;;;;;;4.55;2.67;;;3.30;99.90;;;;;;4967069;28;20027;-77
2022/12/06 04:49:48;;;;;;;4.50;2.40;;;3.30;99.90;;;;;;4970152;28;20050;-80
2022/12/06 04:52:14;;;;;;;5.38;2.40;;;3.30;99.90;;;;;;4959765;28;20035;-81
2022/12/06 04:54:42;;;;;;;5.07;2.70;;;3.30;99.90;;;;;;4959159;28;20656;-79
2022/12/06 04:57:15;;;;;;;4.22;2.53;;;3.30;99.90;;;;;;4961217;28;20102;-80
2022/12/06 04:59:45;;;;;;;4.78;2.65;;;3.30;99.90;;;;;;4979430;28;20031;-78
2022/12/06 05:02:14;;;;;;;3.17;2.08;;;3.40;99.90;;;;;;4968507;28;20122;-80
2022/12/06 05:04:43;;;;;;;4.18;2.42;;;3.40;99.90;;;;;;4968990;28;20130;-80
2022/12/06 05:07:10;;;;;;;5.63;2.33;;;3.40;99.90;;;;;;4961110;28;20035;-80
2022/12/06 05:09:39;;;;;;;5.20;2.35;;;3.40;99.90;;;;;;4964406;28;20062;-78
2022/12/06 05:12:10;;;;;;;4.45;2.78;;;3.40;99.90;;;;;;4950462;28;20035;-80
2022/12/06 05:14:36;;;;;;;5.55;2.97;;;3.40;99.90;;;;;;4963324;28;20404;-79
2022/12/06 05:17:08;;;;;;;6.55;2.92;;;3.40;99.90;;;;;;4960437;28;20058;-78
2022/12/06 05:19:37;;;;;;;4.75;2.75;;;3.50;99.90;;;;;;4958011;28;20031;-79
2022/12/06 05:22:05;;;;;;;6.25;3.25;;;3.40;99.90;;;;;;4953296;28;20032;-78
2022/12/06 05:24:36;;;;;;;4.80;2.63;;;3.50;99.90;;;;;;4963073;28;20020;-79
2022/12/06 05:27:02;;;;;;;5.07;2.97;;;3.50;99.90;;;;;;4954751;28;20033;-77
2022/12/06 05:29:28;;;;;;;4.70;2.40;;;3.50;99.90;;;;;;4961051;28;20039;-79
2022/12/06 05:31:54;;;;;;;5.93;2.50;;;3.50;99.90;;;;;;4969210;28;20121;-80
2022/12/06 05:34:25;;;;;;;5.97;2.80;;;3.50;99.90;;;;;;4964893;28;20109;-80
2022/12/06 05:36:54;;;;;;;9.00;2.75;;;3.50;99.90;;;;;;4958760;28;20031;-80
2022/12/06 05:39:20;;;;;;;6.22;2.85;;;3.60;99.90;;;;;;4960345;28;20197;-80
2022/12/06 05:41:51;;;;;;;7.05;3.20;;;3.60;99.90;;;;;;4957764;28;20066;-80
2022/12/06 05:44:17;;;;;;;9.15;3.38;;;3.60;99.90;;;;;;4958233;28;20043;-80
2022/12/06 05:46:42;;;;;;;9.07;4.07;;;3.50;99.90;;;;;;4957540;28;20023;-79
2022/12/06 05:49:08;;;;;;;7.90;4.40;;;3.60;99.90;;;;;;4952046;28;20059;-79
2022/12/06 05:51:33;;;;;;;12.20;5.32;;;3.50;99.90;;;;;;4953589;28;20012;-79
2022/12/06 05:54:02;;;;;;;11.45;5.22;;;3.50;99.90;;;;;;4961119;28;20098;-79
2022/12/06 05:56:28;;;;;;;8.10;3.95;;;3.50;99.90;;;;;;4958056;28;20430;-78
2022/12/06 05:58:53;;;;;;;7.30;4.10;;;3.50;99.90;;;;;;4957331;28;20032;-80
2022/12/06 06:01:22;;;;;;;6.95;3.65;;;3.50;99.90;;;;;;4958389;28;20483;-80
2022/12/06 06:03:47;;;;;;;6.45;3.88;;;3.50;99.90;;;;;;4953101;28;20027;-78
2022/12/06 06:06:14;;;;;;;4.88;3.28;;;3.50;99.90;;;;;;4955300;28;20035;-77
2022/12/06 06:08:39;;;;;;;5.65;3.17;;;3.50;99.90;;;;;;4959695;28;20538;-77
2022/12/06 06:11:05;;;;;;;6.35;3.03;;;3.50;99.90;;;;;;4967874;28;20035;-75
2022/12/06 06:13:34;;;;;;;6.15;3.15;;;3.50;99.90;;;;;;4973051;28;20051;-76
2022/12/06 06:16:05;;;;;;;9.75;4.10;;;3.50;99.90;;;;;;4966116;28;20031;-76
2022/12/06 06:18:31;;;;;;;5.95;3.30;;;3.70;99.90;;;;;;4959696;28;20042;-77
2022/12/06 06:20:58;;;;;;;7.85;4.20;;;3.70;99.90;;;;;;4974396;28;20400;-77
2022/12/06 06:23:30;;;;;;;7.30;3.88;;;3.70;99.90;;;;;;4965927;28;20042;-77
2022/12/06 06:26:09;;;;;;;6.72;3.97;;;3.80;99.90;;;;;;4965876;28;20060;-79
2022/12/06 06:28:34;;;;;;;5.13;3.25;;;3.80;99.90;;;;;;4962388;28;20039;-78
2022/12/06 06:31:07;;;;;;;7.88;4.25;;;3.90;99.90;;;;;;4963014;28;20027;-78
2022/12/06 06:33:33;;;;;;;10.25;5.07;;;3.90;99.90;;;;;;4966257;28;20050;-77
2022/12/06 06:35:59;;;;;;;8.40;4.35;;;3.90;99.90;;;;;;4964555;28;20557;-78
2022/12/06 06:38:27;;;;;;;12.20;4.38;;;3.90;99.90;;;;;;4964575;28;20040;-80
2022/12/06 06:40:53;;;;;;;10.73;5.10;;;3.80;99.90;;;;;;4964160;28;20035;-78
2022/12/06 06:43:22;;;;;;;9.50;5.22;;;3.80;99.90;;;;;;4979268;28;20035;-79
2022/12/06 06:46:02;;;;;;;16.38;5.65;;;3.80;99.90;;;;;;4964023;28;20031;-78
2022/12/06 06:48:31;;;;;;;8.95;4.10;;;3.80;99.90;;;;;;4963683;28;20023;-78
2022/12/06 06:51:17;;;;;;;6.53;4.60;;;3.80;99.90;;;;;;4955683;29;20043;-79
2022/12/06 06:53:49;;;;;;;7.75;4.85;;;3.80;99.90;;;;;;4969405;28;20039;-78
2022/12/06 06:56:14;;;;;;;10.82;5.00;;;3.80;99.90;;;;;;4968034;28;20118;-78
2022/12/06 06:58:40;;;;;;;8.38;4.80;;;3.80;99.90;;;;;;4961159;28;20059;-77
2022/12/06 07:01:07;;;;;;;6.32;4.30;;;3.80;99.90;;;;;;4952114;28;20059;-78
2022/12/06 07:03:34;;;;;;;10.82;4.60;;;3.80;99.90;;;;;;4963893;28;20034;-76
2022/12/06 07:06:05;;;;;;;7.78;4.05;;;3.80;99.90;;;;;;4960870;28;20026;-80
2022/12/06 07:08:41;;;;;;;7.32;4.28;;;3.80;99.90;;;;;;4963565;28;20045;-79
2022/12/06 07:11:11;;;;;;;8.10;4.60;;;3.80;99.90;;;;;;4971323;28;20023;-78
2022/12/06 07:13:37;;;;;;;8.48;4.15;;;3.70;99.90;;;;;;4968065;28;20027;-78
2022/12/06 07:16:05;;;;;;;13.23;5.28;;;3.80;99.90;;;;;;4959820;28;20054;-79
2022/12/06 07:18:41;;;;;;;10.25;4.10;;;3.80;99.90;;;;;;4965145;28;20024;-78
2022/12/06 07:21:09;;;;;;;7.50;4.70;;;3.80;99.90;;;;;;4963477;29;20070;-77
2022/12/06 07:23:35;;;;;;;8.63;4.07;;;3.80;99.90;;;;;;4944584;29;20531;-78
2022/12/06 07:26:03;;;;;;;10.70;4.75;;;3.80;99.90;;;;;;4951728;28;20113;-78
2022/12/06 07:28:29;;;;;;;8.98;4.90;;;3.80;99.90;;;;;;4973444;28;20054;-81
2022/12/06 07:30:55;;;;;;;9.13;4.40;;;3.80;99.90;;;;;;4957577;28;20070;-82
2022/12/06 07:33:20;;;;;;;8.25;4.07;;;3.80;99.90;;;;;;4974429;28;20481;-77
2022/12/06 07:35:58;;;;;;;6.80;4.00;;;3.80;99.90;;;;;;4964251;28;20026;-80
2022/12/06 07:38:30;;;;;;;8.57;4.20;;;3.80;99.90;;;;;;4963363;28;20030;-81
2022/12/06 07:41:00;;;;;;;6.03;3.92;;;3.80;99.90;;;;;;4968647;28;20687;-80
2022/12/06 07:46:13;;;;;;;7.60;4.13;;;3.80;99.90;;;;;;4960937;28;20038;-80
2022/12/06 07:48:39;;;;;;;8.15;3.72;;;3.80;99.90;;;;;;4956541;28;20035;-81
2022/12/06 07:51:05;;;;;;;10.32;5.40;;;3.80;99.90;;;;;;4957984;28;20106;-81
2022/12/06 07:53:36;;;;;;;12.35;6.60;;;3.80;99.90;;;;;;4960224;28;20023;-81
2022/12/06 07:56:08;;;;;;;6.90;4.50;;;3.80;99.90;;;;;;4959913;28;20392;-80
2022/12/06 07:58:34;;;;;;;5.78;3.97;;;3.80;99.90;;;;;;4966073;28;20035;-81
2022/12/06 08:01:03;;;;;;;6.20;3.85;;;3.80;99.90;;;;;;4960462;28;20049;-81
2022/12/06 08:03:34;;;;;;;5.38;3.50;;;3.80;99.90;;;;;;4961451;28;20028;-81
2022/12/06 08:06:00;;;;;;;5.47;3.00;;;3.80;99.90;;;;;;4967649;28;20028;-81
2022/12/06 08:08:25;;;;;;;7.43;4.15;;;3.80;99.90;;;;;;4960901;28;20028;-81
2022/12/06 08:10:51;;;;;;;6.18;3.30;;;3.80;99.90;;;;;;4961479;28;20051;-82
2022/12/06 08:13:17;;;;;;;5.90;3.50;;;3.90;99.90;;;;;;4957273;28;20035;-81
2022/12/06 08:15:43;;;;;;;6.50;3.63;;;3.90;99.90;;;;;;4961114;28;20091;-79
2022/12/06 08:18:15;;;;;;;6.95;3.13;;;3.90;99.90;;;;;;4954517;28;20054;-80
2022/12/06 08:20:56;;;;;;;4.68;3.40;;;3.90;99.90;;;;;;4965518;28;20039;-81
2022/12/06 08:23:22;;;;;;;7.13;3.38;;;3.90;99.90;;;;;;4963555;28;20049;-78
2022/12/06 08:25:56;;;;;;;5.65;3.38;;;3.90;99.90;;;;;;4960818;28;20035;-80
2022/12/06 08:28:21;;;;;;;;;;;3.90;99.90;;;;;;4960276;28;20024;-79
2022/12/06 08:30:47;;;;;;;8.13;3.35;;;4.00;99.90;;;;;;4962810;28;20040;-79
2022/12/06 08:33:13;;;;;;;7.03;3.35;;;3.90;99.90;;;;;;4909178;28;20038;-79
2022/12/06 08:35:38;;;;;;;8.00;4.07;;;3.90;99.90;;;;;;4970300;28;20043;-81
2022/12/06 08:38:04;;;;;;;6.28;3.53;;;3.90;99.90;;;;;;4961994;28;20035;-79
2022/12/06 08:40:30;;;;;;;9.60;4.10;;;4.00;99.90;;;;;;4963256;28;20034;-79
2022/12/06 08:42:55;;;;;;;7.22;3.78;;;4.00;99.90;;;;;;4957424;28;20112;-80
2022/12/06 08:45:21;;;;;;;8.52;3.95;;;4.00;99.90;;;;;;4958591;28;20028;-81
2022/12/06 08:47:46;;;;;;;10.20;5.43;;;4.00;99.90;;;;;;4958639;28;20019;-80
2022/12/06 08:50:12;;;;;;;10.52;5.38;;;4.00;99.90;;;;;;4965539;28;20031;-79
2022/12/06 08:52:38;;;;;;;9.52;5.03;;;4.00;99.90;;;;;;4961149;28;20027;-79
2022/12/06 08:55:04;;;;;;;11.07;5.18;;;4.10;99.90;;;;;;4962252;28;20058;-80
2022/12/06 08:57:31;;;;;;;13.75;5.18;;;4.10;99.90;;;;;;4963880;28;20020;-77
2022/12/06 08:59:58;;;;;;;10.68;5.70;;;4.10;99.90;;;;;;4965217;28;20050;-81
2022/12/06 09:02:24;;;;;;;12.45;5.60;;;4.20;99.90;;;;;;4965210;28;20054;-80
2022/12/06 09:04:50;;;;;;;12.48;6.80;;;4.10;99.90;;;;;;4957219;28;20087;-81
2022/12/06 09:07:17;;;;;;;11.68;5.75;;;4.20;99.90;;;;;;4957262;28;20034;-80
2022/12/06 09:09:44;;;;;;;12.13;6.35;;;4.20;99.90;;;;;;4967046;28;20102;-80
2022/12/06 09:12:13;;;;;;;10.82;5.80;;;4.20;99.90;;;;;;4964648;28;20027;-81
2022/12/06 09:14:41;;;;;;;9.88;5.10;;;4.20;99.90;;;;;;4957647;28;20031;-80
2022/12/06 09:17:10;;;;;;;9.75;4.68;;;4.30;99.90;;;;;;4962172;28;20175;-77
2022/12/06 09:19:42;;;;;;;9.65;5.32;;;4.30;99.90;;;;;;4955274;28;20033;-80
2022/12/06 09:22:08;;;;;;;12.38;5.20;;;4.30;99.90;;;;;;4965350;28;20037;-78
2022/12/06 09:24:37;;;;;;;9.50;4.57;;;4.30;99.90;;;;;;4963381;28;20051;-81
2022/12/06 09:27:05;;;;;;;9.50;5.10;;;4.30;99.90;;;;;;4959118;28;20047;-82
2022/12/06 09:29:40;;;;;;;15.32;5.90;;;4.30;99.90;;;;;;4961400;28;20392;-80
2022/12/06 09:32:06;;;;;;;11.95;6.03;;;4.30;99.90;;;;;;4960254;28;20043;-78
2022/12/06 09:34:35;;;;;;;10.98;6.00;;;4.30;99.90;;;;;;4967718;28;20045;-81
2022/12/06 09:37:07;;;;;;;11.70;5.78;;;4.40;99.90;;;;;;4956880;28;20038;-80
2022/12/06 09:39:39;;;;;;;12.82;5.65;;;4.40;99.90;;;;;;4960790;28;20480;-78
2022/12/06 09:42:26;;;;;;;10.05;5.32;;;4.40;99.90;;;;;;4963799;28;20027;-77
2022/12/06 09:45:23;;;;;;;11.48;5.40;;;4.40;99.90;;;;;;4971007;28;20102;-81
2022/12/06 09:48:17;;;;;;;10.18;5.15;;;4.40;99.90;;;;;;4967174;28;20062;-79
2022/12/06 09:51:06;;;;;;;10.48;5.47;;;4.40;99.90;;;;;;4967937;28;20019;-80
2022/12/06 09:54:16;;;;;;;10.55;5.43;;;4.50;99.90;;;;;;4962196;28;20031;-81
2022/12/06 09:56:49;;;;;;;13.90;5.43;;;4.50;99.90;;;;;;4957904;28;20032;-79
2022/12/06 09:59:26;;;;;;;10.57;6.03;;;4.50;99.90;;;;;;4966204;28;20552;-80
2022/12/06 10:02:21;;;;;;;9.98;4.85;;;4.50;99.90;;;;;;4967325;28;20042;-80
2022/12/06 10:04:46;;;;;;;;;;;4.60;99.90;;;;;;4962921;28;20166;-81
2022/12/06 10:07:37;;;;;;;6.93;4.50;;;4.60;99.90;;;;;;4960834;28;19938;-81
2022/12/06 10:10:40;;;;;;;10.20;4.82;;;4.60;99.90;;;;;;4953225;28;20023;-81
2022/12/06 10:13:39;;;;;;;7.93;4.45;;;4.70;99.90;;;;;;4960575;28;20031;-82
2022/12/06 10:16:16;;;;;;;9.75;5.22;;;4.70;99.90;;;;;;4964107;28;20374;-80
2022/12/06 10:19:10;;;;;;;11.48;5.18;;;4.70;99.90;;;;;;4963779;28;20027;-80
2022/12/06 10:21:51;;;;;;;11.63;6.32;;;4.70;99.90;;;;;;4968395;28;20042;-81
2022/12/06 10:24:34;;;;;;;10.23;6.00;;;4.70;99.90;;;;;;4963891;28;20027;-78
2022/12/06 10:27:31;;;;;;;13.18;6.63;;;4.70;99.90;;;;;;4962307;28;20072;-80
2022/12/06 10:30:19;;;;;;;17.38;7.15;;;4.70;99.90;;;;;;4970384;28;21370;-80
2022/12/06 10:32:51;;;;;;;12.85;7.20;;;4.70;99.90;;;;;;4962557;28;20065;-80
2022/12/06 10:35:39;;;;;;;14.25;5.88;;;4.70;99.90;;;;;;4967545;28;20030;-80
2022/12/06 10:38:08;;;;;;;11.20;5.40;;;4.70;99.90;;;;;;4957754;28;20078;-80
2022/12/06 10:41:06;;;;;;;23.48;7.07;;;4.80;99.90;;;;;;4964060;28;20062;-81
2022/12/06 10:43:55;;;;;;;16.17;6.30;;;4.70;99.90;;;;;;4955181;28;20035;-80
2022/12/06 10:50:04;;;;;;;11.68;5.90;;;4.70;99.90;;;;;;4959824;28;20042;-81
2022/12/06 10:52:42;;;;;;;17.60;7.20;;;4.80;99.90;;;;;;4943450;28;20028;-81
2022/12/06 10:55:07;;;;;;;18.05;7.00;;;4.80;99.90;;;;;;4956595;28;20038;-81
2022/12/06 10:57:39;;;;;;;14.68;6.70;;;4.80;99.90;;;;;;4960925;28;20097;-79
2022/12/06 11:00:23;;;;;;;15.85;7.10;;;4.80;99.90;;;;;;5013667;23;20038;-74
2022/12/06 11:03:11;;;;;;;16.95;7.10;;;4.80;99.90;;;;;;5004307;28;20057;-75
2022/12/06 11:05:59;;;;;;;10.73;5.95;;;4.90;99.90;;;;;;5008236;28;20266;-74
2022/12/06 11:08:41;;;;;;;12.57;6.25;;;4.90;99.90;;;;;;5005950;28;20030;-77
2022/12/06 11:11:16;;;;;;;13.20;6.70;;;4.90;99.90;;;;;;4993702;28;20037;-77
2022/12/06 11:14:14;;;;;;;11.70;6.57;;;4.90;99.90;;;;;;5008257;28;20053;-76
2022/12/06 11:16:47;;;;;;;15.65;6.10;;;5.00;99.90;;;;;;4990017;28;20038;-77
2022/12/06 11:19:38;;;;;;;13.55;5.93;;;5.10;99.90;;;;;;5006697;28;20030;-77
2022/12/06 11:22:38;;;;;;;10.52;5.97;;;5.10;99.90;;;;;;4993367;28;20145;-77
2022/12/06 11:25:13;;;;;;;9.88;5.75;;;5.10;99.90;;;;;;4990238;28;20054;-76
2022/12/06 11:28:02;;;;;;;8.43;5.43;;;5.10;99.90;;;;;;4985956;28;20027;-74
2022/12/06 11:30:31;;;;;;;13.32;5.68;;;5.20;99.90;;;;;;4983580;28;20097;-75
2022/12/06 11:32:59;;;;;;;10.15;5.55;;;5.20;99.90;;;;;;4989543;28;20046;-74
2022/12/06 11:35:26;;;;;;;13.05;6.50;;;5.20;99.90;;;;;;4988951;28;21182;-74
2022/12/06 11:37:56;;;;;;;10.30;5.45;;;5.30;99.90;;;;;;4985959;28;20031;-73
2022/12/06 11:40:43;;;;;;;9.82;5.35;;;5.40;99.90;;;;;;4992818;28;20171;-75
2022/12/06 11:43:20;;;;;;;11.60;6.38;;;5.40;99.90;;;;;;4982193;28;20026;-74
2022/12/06 11:45:55;;;;;;;14.00;6.05;;;5.50;99.90;;;;;;4989192;28;20442;-75
2022/12/06 11:48:27;;;;;;;10.57;5.90;;;5.50;99.90;;;;;;4991210;28;20027;-75
2022/12/06 11:50:53;;;;;;;11.45;5.90;;;5.50;99.90;;;;;;4988289;28;20045;-75
2022/12/06 11:53:25;;;;;;;10.20;5.95;;;5.60;99.90;;;;;;4988576;28;20434;-75
2022/12/06 11:55:55;;;;;;;10.50;5.80;;;5.60;99.90;;;;;;4989248;28;20125;-73
2022/12/06 11:58:45;;;;;;;11.93;5.60;;;5.60;99.90;;;;;;4986780;28;20033;-75
2022/12/06 12:01:14;;;;;;;9.25;5.32;;;5.60;99.90;;;;;;5005794;28;20407;-75
2022/12/06 12:03:47;;;;;;;10.45;5.40;;;5.60;99.90;;;;;;4991731;28;20093;-77
2022/12/06 12:06:27;;;;;;;12.20;6.43;;;5.60;99.90;;;;;;4996646;28;20026;-77
2022/12/06 12:09:05;;;;;;;9.65;6.03;;;5.60;99.90;;;;;;4991933;28;20375;-77
2022/12/06 12:11:38;;;;;;;10.10;5.90;;;5.60;99.90;;;;;;4993047;28;20569;-78
2022/12/06 12:14:14;;;;;;;10.50;6.40;;;5.50;99.90;;;;;;4992916;28;20033;-76
2022/12/06 12:16:47;;;;;;;12.73;6.20;;;5.50;99.90;;;;;;4989814;28;20301;-75
2022/12/06 12:19:56;;;;;;;15.35;6.88;;;5.50;99.90;;;;;;4993898;28;20034;-76
2022/12/06 12:22:41;;;;;;;9.30;5.43;;;5.50;99.90;;;;;;4908442;29;20054;-76
2022/12/06 12:25:19;;;;;;;12.35;5.63;;;5.50;99.90;;;;;;4905109;29;20031;-75
2022/12/06 12:27:47;;;;;;;9.80;6.07;;;5.50;99.90;;;;;;4961655;28;20609;-75
2022/12/06 12:30:30;;;;;;;11.70;6.40;;;5.40;99.90;;;;;;4986563;28;20169;-76
2022/12/06 12:33:17;;;;;;;11.93;6.50;;;5.40;99.90;;;;;;4987054;28;20145;-76
2022/12/06 12:35:55;;;;;;;10.95;5.93;;;5.40;99.90;;;;;;4986433;28;20442;-76
2022/12/06 12:38:44;;;;;;;10.40;5.95;;;5.40;99.90;;;;;;4982304;28;20030;-76
2022/12/06 12:41:28;;;;;;;10.35;5.60;;;5.40;99.90;;;;;;4984355;28;21055;-76
2022/12/06 12:44:04;;;;;;;9.30;5.68;;;5.30;99.90;;;;;;4996019;28;20006;-79
2022/12/06 12:46:36;;;;;;;10.63;5.60;;;5.30;99.90;;;;;;4991635;28;20038;-76
2022/12/06 12:49:21;;;;;;;9.65;5.85;;;5.30;99.90;;;;;;4992296;28;20588;-77
2022/12/06 12:51:46;;;;;;;22.80;7.00;;;5.30;99.90;;;;;;5004539;28;20031;-77
2022/12/06 12:54:24;;;;;;;22.27;7.65;;;5.30;99.90;;;;;;4991152;28;20037;-77
2022/12/06 12:56:50;;;;;;;12.80;7.25;;;5.30;99.90;;;;;;4993524;28;20446;-77
2022/12/06 12:59:21;;;;;;;14.25;6.57;;;5.30;99.90;;;;;;4990513;28;20491;-77
2022/12/06 13:02:08;;;;;;;11.02;6.53;;;5.30;99.90;;;;;;4984654;28;20039;-77
2022/12/06 13:04:44;;;;;;;14.77;6.50;;;5.30;99.90;;;;;;4993701;28;20022;-76
2022/12/06 13:07:42;;;;;;;13.23;7.03;;;5.30;99.90;;;;;;4982799;28;20031;-77
2022/12/06 13:10:32;;;;;;;9.82;6.40;;;5.30;99.90;;;;;;4990779;28;20085;-77
2022/12/06 13:13:02;;;;;;;12.32;7.38;;;5.30;99.90;;;;;;4986673;28;20030;-76
2022/12/06 13:15:39;;;;;;;11.50;7.25;;;5.30;99.90;;;;;;4995236;28;20034;-77
2022/12/06 13:18:41;;;;;;;11.23;6.75;;;5.30;99.90;;;;;;4991064;28;20088;-77
2022/12/06 13:21:20;;;;;;;11.55;7.70;;;5.40;99.90;;;;;;4991298;28;20430;-77
2022/12/06 13:23:51;;;;;;;12.60;7.28;;;5.40;99.90;;;;;;5010048;28;20549;-77
2022/12/06 13:26:31;;;;;;;13.23;7.03;;;5.30;99.90;;;;;;4989082;28;20514;-76
2022/12/06 13:29:10;;;;;;;10.38;7.47;;;5.30;99.90;;;;;;4995452;28;20030;-77
2022/12/06 13:31:38;;;;;;;18.38;7.40;;;5.30;99.90;;;;;;4991016;28;20037;-77
2022/12/06 13:34:52;;;;;;;15.18;7.70;;;5.30;99.90;;;;;;4991937;28;20120;-78
2022/12/06 13:37:51;;;;;;;14.75;6.75;;;5.30;99.90;;;;;;4994559;28;20487;-75
2022/12/06 13:40:32;;;;;;;14.75;7.97;;;5.30;99.90;;;;;;4993616;28;20087;-78
2022/12/06 13:43:25;;;;;;;18.55;8.50;;;5.30;99.90;;;;;;5009071;28;20501;-77
2022/12/06 13:46:25;;;;;;;14.57;7.63;;;5.30;99.90;;;;;;4990126;28;20368;-77
2022/12/06 13:49:23;;;;;;;16.58;7.75;;;5.30;99.90;;;;;;4981777;28;20030;-78
2022/12/06 13:51:49;;;;;;;14.18;7.18;;;5.30;99.90;;;;;;4969767;28;20097;-78
2022/12/06 13:54:18;;;;;;;12.95;7.63;;;5.30;99.90;;;;;;4993049;28;21209;-77
2022/12/06 13:56:43;;;;;;;15.10;7.70;;;5.30;99.90;;;;;;4991031;28;20033;-77